sensor_id;sensor_type;location;lat;lon;timestamp;temperature;humidity
9662;DHT22;24982;52.344;12.990;2023-07-02T00:00:17;19.60;99.90
9662;DHT22;24982;52.344;12.990;2023-07-02T00:03:21;19.60;99.90
9662;DHT22;24982;52.344;12.990;2023-07-02T00:06:23;19.60;99.90
9662;DHT22;24982;52.344;12.990;2023-07-02T00:09:25;19.60;99.90
9662;DHT22;24982;52.344;12.990;2023-07-02T00:12:29;19.60;99.90
9662;DHT22;24982;52.344;12.990;2023-07-02T00:15:31;19.60;99.90
9662;DHT22;24982;52.344;12.990;2023-07-02T00:18:33;19.70;99.90
9662;DHT22;24982;52.344;12.990;2023-07-02T00:21:35;19.70;99.90
9662;DHT22;24982;52.344;12.990;2023-07-02T00:24:37;19.70;99.90
9662;DHT22;24982;52.344;12.990;2023-07-02T00:27:41;19.70;99.90
9662;DHT22;24982;52.344;12.990;2023-07-02T00:30:43;19.60;99.90
9662;DHT22;24982;52.344;12.990;2023-07-02T00:33:45;19.70;99.90
9662;DHT22;24982;52.344;12.990;2023-07-02T00:36:47;19.60;99.90
9662;DHT22;24982;52.344;12.990;2023-07-02T00:39:49;19.70;99.90
9662;DHT22;24982;52.344;12.990;2023-07-02T00:42:52;19.70;99.90
9662;DHT22;24982;52.344;12.990;2023-07-02T00:45:54;19.70;99.90
9662;DHT22;24982;52.344;12.990;2023-07-02T00:48:57;19.70;99.90
9662;DHT22;24982;52.344;12.990;2023-07-02T00:52:01;19.60;99.90
9662;DHT22;24982;52.344;12.990;2023-07-02T00:55:03;19.60;99.90
9662;DHT22;24982;52.344;12.990;2023-07-02T00:58:06;19.60;99.90
9662;DHT22;24982;52.344;12.990;2023-07-02T01:01:10;19.60;99.90
9662;DHT22;24982;52.344;12.990;2023-07-02T01:04:12;19.70;99.90
9662;DHT22;24982;52.344;12.990;2023-07-02T01:07:14;19.60;99.90
9662;DHT22;24982;52.344;12.990;2023-07-02T01:10:16;19.70;99.90
9662;DHT22;24982;52.344;12.990;2023-07-02T01:13:21;19.70;99.90
9662;DHT22;24982;52.344;12.990;2023-07-02T01:16:26;19.60;99.90
9662;DHT22;24982;52.344;12.990;2023-07-02T01:19:40;19.60;99.90
9662;DHT22;24982;52.344;12.990;2023-07-02T01:22:43;19.60;99.90
9662;DHT22;24982;52.344;12.990;2023-07-02T01:25:45;19.60;99.90
9662;DHT22;24982;52.344;12.990;2023-07-02T01:28:48;19.60;99.90
9662;DHT22;24982;52.344;12.990;2023-07-02T01:31:51;19.50;99.90
9662;DHT22;24982;52.344;12.990;2023-07-02T01:34:55;19.60;99.90
9662;DHT22;24982;52.344;12.990;2023-07-02T01:37:59;19.60;99.90
9662;DHT22;24982;52.344;12.990;2023-07-02T01:41:01;19.60;99.90
9662;DHT22;24982;52.344;12.990;2023-07-02T01:44:03;19.50;99.90
9662;DHT22;24982;52.344;12.990;2023-07-02T01:47:06;19.60;99.90
9662;DHT22;24982;52.344;12.990;2023-07-02T01:50:10;19.50;99.90
9662;DHT22;24982;52.344;12.990;2023-07-02T01:53:12;19.50;99.90
9662;DHT22;24982;52.344;12.990;2023-07-02T01:56:14;19.50;99.90
9662;DHT22;24982;52.344;12.990;2023-07-02T01:59:16;19.50;99.90
9662;DHT22;24982;52.344;12.990;2023-07-02T02:02:18;19.50;99.90
9662;DHT22;24982;52.344;12.990;2023-07-02T02:05:21;19.40;99.90
9662;DHT22;24982;52.344;12.990;2023-07-02T02:08:24;19.50;99.90
9662;DHT22;24982;52.344;12.990;2023-07-02T02:11:26;19.40;99.90
9662;DHT22;24982;52.344;12.990;2023-07-02T02:14:28;19.40;99.90
9662;DHT22;24982;52.344;12.990;2023-07-02T02:17:31;19.40;99.90
9662;DHT22;24982;52.344;12.990;2023-07-02T02:20:35;19.40;99.90
9662;DHT22;24982;52.344;12.990;2023-07-02T02:23:37;19.40;99.90
9662;DHT22;24982;52.344;12.990;2023-07-02T02:26:39;19.50;99.90
9662;DHT22;24982;52.344;12.990;2023-07-02T02:29:41;19.50;99.90
9662;DHT22;24982;52.344;12.990;2023-07-02T02:32:43;19.40;99.90
9662;DHT22;24982;52.344;12.990;2023-07-02T02:35:47;19.40;99.90
9662;DHT22;24982;52.344;12.990;2023-07-02T02:38:50;19.40;99.90
9662;DHT22;24982;52.344;12.990;2023-07-02T02:41:52;19.40;99.90
9662;DHT22;24982;52.344;12.990;2023-07-02T02:44:55;19.40;99.90
9662;DHT22;24982;52.344;12.990;2023-07-02T02:47:57;19.30;99.90
9662;DHT22;24982;52.344;12.990;2023-07-02T02:51:01;19.20;99.90
9662;DHT22;24982;52.344;12.990;2023-07-02T02:54:03;19.30;99.90
9662;DHT22;24982;52.344;12.990;2023-07-02T02:57:05;19.40;99.90
9662;DHT22;24982;52.344;12.990;2023-07-02T03:00:07;19.30;99.90
9662;DHT22;24982;52.344;12.990;2023-07-02T03:03:10;19.30;99.90
9662;DHT22;24982;52.344;12.990;2023-07-02T03:06:14;19.40;99.90
9662;DHT22;24982;52.344;12.990;2023-07-02T03:09:16;19.30;99.90
9662;DHT22;24982;52.344;12.990;2023-07-02T03:12:19;19.40;99.90
9662;DHT22;24982;52.344;12.990;2023-07-02T03:15:21;19.30;99.90
9662;DHT22;24982;52.344;12.990;2023-07-02T03:18:23;19.30;99.90
9662;DHT22;24982;52.344;12.990;2023-07-02T03:21:26;19.30;99.90
9662;DHT22;24982;52.344;12.990;2023-07-02T03:24:30;19.30;99.90
9662;DHT22;24982;52.344;12.990;2023-07-02T03:27:32;19.30;99.90
9662;DHT22;24982;52.344;12.990;2023-07-02T03:30:34;19.20;99.90
9662;DHT22;24982;52.344;12.990;2023-07-02T03:33:36;19.20;99.90
9662;DHT22;24982;52.344;12.990;2023-07-02T03:36:39;19.30;99.90
9662;DHT22;24982;52.344;12.990;2023-07-02T03:39:41;19.20;99.90
9662;DHT22;24982;52.344;12.990;2023-07-02T03:42:43;19.20;99.90
9662;DHT22;24982;52.344;12.990;2023-07-02T03:45:45;19.30;99.90
9662;DHT22;24982;52.344;12.990;2023-07-02T03:48:47;19.20;99.90
9662;DHT22;24982;52.344;12.990;2023-07-02T03:51:50;19.20;99.90
9662;DHT22;24982;52.344;12.990;2023-07-02T03:54:53;19.20;99.90
9662;DHT22;24982;52.344;12.990;2023-07-02T03:57:55;19.10;99.90
9662;DHT22;24982;52.344;12.990;2023-07-02T04:00:57;19.20;99.90
9662;DHT22;24982;52.344;12.990;2023-07-02T04:03:59;19.20;99.90
9662;DHT22;24982;52.344;12.990;2023-07-02T04:07:02;19.10;99.90
9662;DHT22;24982;52.344;12.990;2023-07-02T04:10:05;19.10;99.90
9662;DHT22;24982;52.344;12.990;2023-07-02T04:13:07;19.10;99.90
9662;DHT22;24982;52.344;12.990;2023-07-02T04:16:09;19.10;99.90
9662;DHT22;24982;52.344;12.990;2023-07-02T04:19:11;19.10;99.90
9662;DHT22;24982;52.344;12.990;2023-07-02T04:22:14;19.00;99.90
9662;DHT22;24982;52.344;12.990;2023-07-02T04:25:16;19.10;99.90
9662;DHT22;24982;52.344;12.990;2023-07-02T04:28:18;19.10;99.90
9662;DHT22;24982;52.344;12.990;2023-07-02T04:31:20;19.10;99.90
9662;DHT22;24982;52.344;12.990;2023-07-02T04:34:22;19.10;99.90
9662;DHT22;24982;52.344;12.990;2023-07-02T04:37:26;19.20;99.90
9662;DHT22;24982;52.344;12.990;2023-07-02T04:40:29;19.10;99.90
9662;DHT22;24982;52.344;12.990;2023-07-02T04:43:31;19.10;99.90
9662;DHT22;24982;52.344;12.990;2023-07-02T04:46:33;19.20;99.90
9662;DHT22;24982;52.344;12.990;2023-07-02T04:49:35;19.20;99.90
9662;DHT22;24982;52.344;12.990;2023-07-02T04:52:39;19.20;99.90
9662;DHT22;24982;52.344;12.990;2023-07-02T04:55:41;19.10;99.90
9662;DHT22;24982;52.344;12.990;2023-07-02T04:58:43;19.20;99.90
9662;DHT22;24982;52.344;12.990;2023-07-02T05:01:45;19.20;99.90
9662;DHT22;24982;52.344;12.990;2023-07-02T05:04:47;19.20;99.90
9662;DHT22;24982;52.344;12.990;2023-07-02T05:07:50;19.30;99.90
9662;DHT22;24982;52.344;12.990;2023-07-02T05:10:52;19.30;99.90
9662;DHT22;24982;52.344;12.990;2023-07-02T05:13:54;19.30;99.90
9662;DHT22;24982;52.344;12.990;2023-07-02T05:16:56;19.20;99.90
9662;DHT22;24982;52.344;12.990;2023-07-02T05:19:58;19.30;99.90
9662;DHT22;24982;52.344;12.990;2023-07-02T05:23:01;19.40;99.90
9662;DHT22;24982;52.344;12.990;2023-07-02T05:26:03;19.40;99.90
9662;DHT22;24982;52.344;12.990;2023-07-02T05:29:05;19.40;99.90
9662;DHT22;24982;52.344;12.990;2023-07-02T05:32:07;19.30;99.90
9662;DHT22;24982;52.344;12.990;2023-07-02T05:35:09;19.30;99.90
9662;DHT22;24982;52.344;12.990;2023-07-02T05:38:12;19.20;99.90
9662;DHT22;24982;52.344;12.990;2023-07-02T05:41:18;19.20;99.90
9662;DHT22;24982;52.344;12.990;2023-07-02T05:44:20;19.30;99.90
9662;DHT22;24982;52.344;12.990;2023-07-02T05:47:22;19.20;99.90
9662;DHT22;24982;52.344;12.990;2023-07-02T05:50:24;19.20;99.90
9662;DHT22;24982;52.344;12.990;2023-07-02T05:53:27;19.30;99.90
9662;DHT22;24982;52.344;12.990;2023-07-02T05:56:29;19.30;99.90
9662;DHT22;24982;52.344;12.990;2023-07-02T05:59:31;19.00;99.90
9662;DHT22;24982;52.344;12.990;2023-07-02T06:02:33;19.30;99.90
9662;DHT22;24982;52.344;12.990;2023-07-02T06:05:35;19.40;99.90
9662;DHT22;24982;52.344;12.990;2023-07-02T06:08:39;19.70;99.90
9662;DHT22;24982;52.344;12.990;2023-07-02T06:11:42;19.40;99.90
9662;DHT22;24982;52.344;12.990;2023-07-02T06:14:44;19.40;99.90
9662;DHT22;24982;52.344;12.990;2023-07-02T06:17:46;19.30;99.90
9662;DHT22;24982;52.344;12.990;2023-07-02T06:20:48;19.40;99.90
9662;DHT22;24982;52.344;12.990;2023-07-02T06:23:51;19.50;99.90
9662;DHT22;24982;52.344;12.990;2023-07-02T06:26:53;19.40;99.90
9662;DHT22;24982;52.344;12.990;2023-07-02T06:29:55;19.60;99.90
9662;DHT22;24982;52.344;12.990;2023-07-02T06:32:57;19.50;99.90
9662;DHT22;24982;52.344;12.990;2023-07-02T06:35:59;19.60;99.90
9662;DHT22;24982;52.344;12.990;2023-07-02T06:39:02;19.60;99.90
9662;DHT22;24982;52.344;12.990;2023-07-02T06:42:04;19.50;99.90
9662;DHT22;24982;52.344;12.990;2023-07-02T06:45:07;19.60;99.90
9662;DHT22;24982;52.344;12.990;2023-07-02T06:48:09;19.60;99.90
9662;DHT22;24982;52.344;12.990;2023-07-02T06:51:11;19.60;99.90
9662;DHT22;24982;52.344;12.990;2023-07-02T06:54:16;19.60;99.90
9662;DHT22;24982;52.344;12.990;2023-07-02T06:57:18;19.70;99.90
9662;DHT22;24982;52.344;12.990;2023-07-02T07:00:20;19.80;99.90
9662;DHT22;24982;52.344;12.990;2023-07-02T07:03:22;19.70;99.90
9662;DHT22;24982;52.344;12.990;2023-07-02T07:06:25;19.60;99.90
9662;DHT22;24982;52.344;12.990;2023-07-02T07:09:28;19.60;99.90
9662;DHT22;24982;52.344;12.990;2023-07-02T07:12:30;19.60;99.90
9662;DHT22;24982;52.344;12.990;2023-07-02T07:15:34;19.70;99.90
9662;DHT22;24982;52.344;12.990;2023-07-02T07:18:36;19.70;99.90
9662;DHT22;24982;52.344;12.990;2023-07-02T07:21:38;19.70;99.90
9662;DHT22;24982;52.344;12.990;2023-07-02T07:24:42;19.70;99.90
9662;DHT22;24982;52.344;12.990;2023-07-02T07:27:44;19.80;99.90
9662;DHT22;24982;52.344;12.990;2023-07-02T07:30:46;19.10;99.90
9662;DHT22;24982;52.344;12.990;2023-07-02T07:33:48;19.70;99.90
9662;DHT22;24982;52.344;12.990;2023-07-02T07:36:50;19.60;99.90
9662;DHT22;24982;52.344;12.990;2023-07-02T07:39:53;19.70;99.90
9662;DHT22;24982;52.344;12.990;2023-07-02T07:42:55;19.70;99.90
9662;DHT22;24982;52.344;12.990;2023-07-02T07:45:57;19.70;99.90
9662;DHT22;24982;52.344;12.990;2023-07-02T07:48:59;19.80;99.90
9662;DHT22;24982;52.344;12.990;2023-07-02T07:52:02;19.80;99.90
9662;DHT22;24982;52.344;12.990;2023-07-02T07:55:09;19.90;99.90
9662;DHT22;24982;52.344;12.990;2023-07-02T07:58:11;19.90;99.90
9662;DHT22;24982;52.344;12.990;2023-07-02T08:01:13;19.70;99.90
9662;DHT22;24982;52.344;12.990;2023-07-02T08:04:15;19.80;99.90
9662;DHT22;24982;52.344;12.990;2023-07-02T08:07:17;19.80;99.90
9662;DHT22;24982;52.344;12.990;2023-07-02T08:10:20;19.80;99.90
9662;DHT22;24982;52.344;12.990;2023-07-02T08:13:22;19.70;99.90
9662;DHT22;24982;52.344;12.990;2023-07-02T08:16:24;19.70;99.90
9662;DHT22;24982;52.344;12.990;2023-07-02T08:19:26;19.70;99.90
9662;DHT22;24982;52.344;12.990;2023-07-02T08:22:28;19.60;99.90
9662;DHT22;24982;52.344;12.990;2023-07-02T08:25:31;19.40;99.90
9662;DHT22;24982;52.344;12.990;2023-07-02T08:28:33;19.20;99.90
9662;DHT22;24982;52.344;12.990;2023-07-02T08:31:35;19.00;99.90
9662;DHT22;24982;52.344;12.990;2023-07-02T08:34:37;19.00;99.90
9662;DHT22;24982;52.344;12.990;2023-07-02T08:37:39;18.90;99.90
9662;DHT22;24982;52.344;12.990;2023-07-02T08:40:42;18.80;99.90
9662;DHT22;24982;52.344;12.990;2023-07-02T08:43:44;18.70;99.90
9662;DHT22;24982;52.344;12.990;2023-07-02T08:46:49;18.60;99.90
9662;DHT22;24982;52.344;12.990;2023-07-02T08:49:53;18.60;99.90
9662;DHT22;24982;52.344;12.990;2023-07-02T08:52:55;18.50;99.90
9662;DHT22;24982;52.344;12.990;2023-07-02T08:55:59;18.40;99.90
9662;DHT22;24982;52.344;12.990;2023-07-02T08:59:03;18.40;99.90
9662;DHT22;24982;52.344;12.990;2023-07-02T09:02:05;18.40;99.90
9662;DHT22;24982;52.344;12.990;2023-07-02T09:05:08;18.40;99.90
9662;DHT22;24982;52.344;12.990;2023-07-02T09:08:10;18.90;99.90
9662;DHT22;24982;52.344;12.990;2023-07-02T09:11:15;18.50;99.90
9662;DHT22;24982;52.344;12.990;2023-07-02T09:14:24;18.50;99.90
9662;DHT22;24982;52.344;12.990;2023-07-02T09:17:28;18.60;99.90
9662;DHT22;24982;52.344;12.990;2023-07-02T09:20:33;18.50;99.90
9662;DHT22;24982;52.344;12.990;2023-07-02T09:23:35;18.70;99.90
9662;DHT22;24982;52.344;12.990;2023-07-02T09:26:42;18.60;99.90
9662;DHT22;24982;52.344;12.990;2023-07-02T09:29:49;18.70;99.90
9662;DHT22;24982;52.344;12.990;2023-07-02T09:32:51;18.70;99.90
9662;DHT22;24982;52.344;12.990;2023-07-02T09:35:55;18.90;99.90
9662;DHT22;24982;52.344;12.990;2023-07-02T09:38:57;19.10;99.90
9662;DHT22;24982;52.344;12.990;2023-07-02T09:42:02;19.50;99.90
9662;DHT22;24982;52.344;12.990;2023-07-02T09:45:07;19.60;99.90
9662;DHT22;24982;52.344;12.990;2023-07-02T09:48:12;19.80;99.90
9662;DHT22;24982;52.344;12.990;2023-07-02T09:51:15;19.90;99.90
9662;DHT22;24982;52.344;12.990;2023-07-02T09:54:17;20.10;99.90
9662;DHT22;24982;52.344;12.990;2023-07-02T09:57:22;20.20;99.90
9662;DHT22;24982;52.344;12.990;2023-07-02T10:00:24;20.40;99.90
9662;DHT22;24982;52.344;12.990;2023-07-02T10:03:30;20.70;99.90
9662;DHT22;24982;52.344;12.990;2023-07-02T10:06:44;20.60;99.90
9662;DHT22;24982;52.344;12.990;2023-07-02T10:09:46;20.50;99.90
9662;DHT22;24982;52.344;12.990;2023-07-02T10:12:50;20.50;99.90
9662;DHT22;24982;52.344;12.990;2023-07-02T10:16:01;20.40;99.90
9662;DHT22;24982;52.344;12.990;2023-07-02T10:19:09;20.40;99.90
9662;DHT22;24982;52.344;12.990;2023-07-02T10:22:11;20.50;99.90
9662;DHT22;24982;52.344;12.990;2023-07-02T10:25:24;20.80;99.90
9662;DHT22;24982;52.344;12.990;2023-07-02T10:28:28;20.90;99.90
9662;DHT22;24982;52.344;12.990;2023-07-02T10:31:30;20.90;99.90
9662;DHT22;24982;52.344;12.990;2023-07-02T10:34:33;21.10;99.90
9662;DHT22;24982;52.344;12.990;2023-07-02T10:37:35;21.40;99.90
9662;DHT22;24982;52.344;12.990;2023-07-02T10:40:38;21.80;99.90
9662;DHT22;24982;52.344;12.990;2023-07-02T10:43:41;21.80;99.90
9662;DHT22;24982;52.344;12.990;2023-07-02T10:46:44;22.00;99.90
9662;DHT22;24982;52.344;12.990;2023-07-02T10:49:46;22.00;99.90
9662;DHT22;24982;52.344;12.990;2023-07-02T10:52:49;21.90;99.90
9662;DHT22;24982;52.344;12.990;2023-07-02T10:55:53;22.00;99.90
9662;DHT22;24982;52.344;12.990;2023-07-02T10:58:57;21.90;99.90
9662;DHT22;24982;52.344;12.990;2023-07-02T11:02:00;21.80;99.90
9662;DHT22;24982;52.344;12.990;2023-07-02T11:05:04;21.90;99.90
9662;DHT22;24982;52.344;12.990;2023-07-02T11:08:10;21.80;99.90
9662;DHT22;24982;52.344;12.990;2023-07-02T11:11:12;21.60;99.90
9662;DHT22;24982;52.344;12.990;2023-07-02T11:14:26;21.70;99.90
9662;DHT22;24982;52.344;12.990;2023-07-02T11:17:28;21.80;99.90
9662;DHT22;24982;52.344;12.990;2023-07-02T11:20:34;22.10;99.90
9662;DHT22;24982;52.344;12.990;2023-07-02T11:23:36;21.90;99.90
9662;DHT22;24982;52.344;12.990;2023-07-02T11:26:39;21.80;99.90
9662;DHT22;24982;52.344;12.990;2023-07-02T11:29:43;21.70;99.90
9662;DHT22;24982;52.344;12.990;2023-07-02T11:32:49;22.10;99.90
9662;DHT22;24982;52.344;12.990;2023-07-02T11:35:52;22.40;99.90
9662;DHT22;24982;52.344;12.990;2023-07-02T11:38:55;22.60;99.90
9662;DHT22;24982;52.344;12.990;2023-07-02T11:41:57;22.90;99.90
9662;DHT22;24982;52.344;12.990;2023-07-02T11:45:00;23.00;99.90
9662;DHT22;24982;52.344;12.990;2023-07-02T11:48:02;23.30;99.90
9662;DHT22;24982;52.344;12.990;2023-07-02T11:51:04;23.40;99.90
9662;DHT22;24982;52.344;12.990;2023-07-02T11:54:07;23.60;99.90
9662;DHT22;24982;52.344;12.990;2023-07-02T11:57:09;23.70;99.90
9662;DHT22;24982;52.344;12.990;2023-07-02T12:00:13;23.70;99.90
9662;DHT22;24982;52.344;12.990;2023-07-02T12:03:16;23.90;99.90
9662;DHT22;24982;52.344;12.990;2023-07-02T12:06:18;24.00;99.90
9662;DHT22;24982;52.344;12.990;2023-07-02T12:09:20;23.90;99.90
9662;DHT22;24982;52.344;12.990;2023-07-02T12:12:22;24.00;99.90
9662;DHT22;24982;52.344;12.990;2023-07-02T12:15:25;23.90;99.90
9662;DHT22;24982;52.344;12.990;2023-07-02T12:18:28;23.90;99.90
9662;DHT22;24982;52.344;12.990;2023-07-02T12:21:30;24.00;99.90
9662;DHT22;24982;52.344;12.990;2023-07-02T12:24:32;23.50;99.90
9662;DHT22;24982;52.344;12.990;2023-07-02T12:27:34;24.00;99.90
9662;DHT22;24982;52.344;12.990;2023-07-02T12:30:37;23.90;99.90
9662;DHT22;24982;52.344;12.990;2023-07-02T12:33:39;23.90;99.90
9662;DHT22;24982;52.344;12.990;2023-07-02T12:36:41;24.00;99.90
9662;DHT22;24982;52.344;12.990;2023-07-02T12:39:43;23.90;99.90
9662;DHT22;24982;52.344;12.990;2023-07-02T12:42:46;24.00;99.90
9662;DHT22;24982;52.344;12.990;2023-07-02T12:45:50;24.10;99.90
9662;DHT22;24982;52.344;12.990;2023-07-02T12:48:52;24.00;99.90
9662;DHT22;24982;52.344;12.990;2023-07-02T12:51:54;23.90;99.90
9662;DHT22;24982;52.344;12.990;2023-07-02T12:54:56;23.80;99.90
9662;DHT22;24982;52.344;12.990;2023-07-02T12:57:58;23.70;99.90
9662;DHT22;24982;52.344;12.990;2023-07-02T13:01:01;23.60;99.90
9662;DHT22;24982;52.344;12.990;2023-07-02T13:04:03;23.80;99.90
9662;DHT22;24982;52.344;12.990;2023-07-02T13:07:05;23.70;99.90
9662;DHT22;24982;52.344;12.990;2023-07-02T13:10:08;23.80;99.90
9662;DHT22;24982;52.344;12.990;2023-07-02T13:13:10;23.70;99.90
9662;DHT22;24982;52.344;12.990;2023-07-02T13:16:13;23.60;99.90
9662;DHT22;24982;52.344;12.990;2023-07-02T13:19:15;23.60;99.90
9662;DHT22;24982;52.344;12.990;2023-07-02T13:22:17;23.60;99.90
9662;DHT22;24982;52.344;12.990;2023-07-02T13:25:19;23.70;99.90
9662;DHT22;24982;52.344;12.990;2023-07-02T13:28:21;23.70;99.90
9662;DHT22;24982;52.344;12.990;2023-07-02T13:31:25;23.70;99.90
9662;DHT22;24982;52.344;12.990;2023-07-02T13:34:27;23.90;99.90
9662;DHT22;24982;52.344;12.990;2023-07-02T13:37:29;23.90;99.90
9662;DHT22;24982;52.344;12.990;2023-07-02T13:40:31;23.80;99.90
9662;DHT22;24982;52.344;12.990;2023-07-02T13:43:33;23.80;99.90
9662;DHT22;24982;52.344;12.990;2023-07-02T13:46:36;23.60;99.90
9662;DHT22;24982;52.344;12.990;2023-07-02T13:49:38;23.60;99.90
9662;DHT22;24982;52.344;12.990;2023-07-02T13:52:40;23.60;99.90
9662;DHT22;24982;52.344;12.990;2023-07-02T13:55:42;23.60;99.90
9662;DHT22;24982;52.344;12.990;2023-07-02T13:58:59;23.60;99.90
9662;DHT22;24982;52.344;12.990;2023-07-02T14:02:01;23.70;99.90
9662;DHT22;24982;52.344;12.990;2023-07-02T14:05:04;23.50;99.90
9662;DHT22;24982;52.344;12.990;2023-07-02T14:08:06;23.50;99.90
9662;DHT22;24982;52.344;12.990;2023-07-02T14:11:08;23.40;99.90
9662;DHT22;24982;52.344;12.990;2023-07-02T14:14:11;23.50;99.90
9662;DHT22;24982;52.344;12.990;2023-07-02T14:17:13;23.50;99.90
9662;DHT22;24982;52.344;12.990;2023-07-02T14:20:15;23.40;99.90
9662;DHT22;24982;52.344;12.990;2023-07-02T14:23:18;23.30;99.90
9662;DHT22;24982;52.344;12.990;2023-07-02T14:26:19;23.30;99.90
9662;DHT22;24982;52.344;12.990;2023-07-02T14:29:23;23.40;99.90
9662;DHT22;24982;52.344;12.990;2023-07-02T14:32:25;23.60;99.90
9662;DHT22;24982;52.344;12.990;2023-07-02T14:35:27;23.70;99.90
9662;DHT22;24982;52.344;12.990;2023-07-02T14:38:30;23.70;99.90
9662;DHT22;24982;52.344;12.990;2023-07-02T14:41:33;23.70;99.90
9662;DHT22;24982;52.344;12.990;2023-07-02T14:44:37;23.60;99.90
9662;DHT22;24982;52.344;12.990;2023-07-02T14:47:39;23.50;99.90
9662;DHT22;24982;52.344;12.990;2023-07-02T14:50:47;23.50;99.90
9662;DHT22;24982;52.344;12.990;2023-07-02T14:53:50;23.50;99.90
9662;DHT22;24982;52.344;12.990;2023-07-02T14:56:52;23.50;99.90
9662;DHT22;24982;52.344;12.990;2023-07-02T14:59:55;23.50;99.90
9662;DHT22;24982;52.344;12.990;2023-07-02T15:02:57;23.50;99.90
9662;DHT22;24982;52.344;12.990;2023-07-02T15:06:07;23.30;99.90
9662;DHT22;24982;52.344;12.990;2023-07-02T15:09:09;23.40;99.90
9662;DHT22;24982;52.344;12.990;2023-07-02T15:12:11;23.50;99.90
9662;DHT22;24982;52.344;12.990;2023-07-02T15:15:15;23.60;99.90
9662;DHT22;24982;52.344;12.990;2023-07-02T15:18:17;23.60;99.90
9662;DHT22;24982;52.344;12.990;2023-07-02T15:21:20;23.60;99.90
9662;DHT22;24982;52.344;12.990;2023-07-02T15:24:24;23.70;99.90
9662;DHT22;24982;52.344;12.990;2023-07-02T15:27:25;23.60;99.90
9662;DHT22;24982;52.344;12.990;2023-07-02T15:30:29;23.40;99.90
9662;DHT22;24982;52.344;12.990;2023-07-02T15:33:31;23.30;99.90
9662;DHT22;24982;52.344;12.990;2023-07-02T15:36:33;23.40;99.90
9662;DHT22;24982;52.344;12.990;2023-07-02T15:39:36;23.50;99.90
9662;DHT22;24982;52.344;12.990;2023-07-02T15:42:38;23.50;99.90
9662;DHT22;24982;52.344;12.990;2023-07-02T15:45:41;23.50;99.90
9662;DHT22;24982;52.344;12.990;2023-07-02T15:48:43;23.30;99.90
9662;DHT22;24982;52.344;12.990;2023-07-02T15:51:46;23.20;99.90
9662;DHT22;24982;52.344;12.990;2023-07-02T15:54:48;23.10;99.90
9662;DHT22;24982;52.344;12.990;2023-07-02T15:57:50;23.00;99.90
9662;DHT22;24982;52.344;12.990;2023-07-02T16:00:54;22.80;99.90
9662;DHT22;24982;52.344;12.990;2023-07-02T16:03:56;22.80;99.90
9662;DHT22;24982;52.344;12.990;2023-07-02T16:06:58;22.70;99.90
9662;DHT22;24982;52.344;12.990;2023-07-02T16:10:00;22.60;99.90
9662;DHT22;24982;52.344;12.990;2023-07-02T16:13:02;22.60;99.90
9662;DHT22;24982;52.344;12.990;2023-07-02T16:16:06;22.60;99.90
9662;DHT22;24982;52.344;12.990;2023-07-02T16:19:09;22.60;99.90
9662;DHT22;24982;52.344;12.990;2023-07-02T16:22:11;22.60;99.90
9662;DHT22;24982;52.344;12.990;2023-07-02T16:25:13;22.50;99.90
9662;DHT22;24982;52.344;12.990;2023-07-02T16:28:16;22.40;99.90
9662;DHT22;24982;52.344;12.990;2023-07-02T16:31:19;22.40;99.90
9662;DHT22;24982;52.344;12.990;2023-07-02T16:34:21;22.60;99.90
9662;DHT22;24982;52.344;12.990;2023-07-02T16:37:23;22.30;99.90
9662;DHT22;24982;52.344;12.990;2023-07-02T16:40:26;22.10;99.90
9662;DHT22;24982;52.344;12.990;2023-07-02T16:43:28;22.30;99.90
9662;DHT22;24982;52.344;12.990;2023-07-02T16:46:31;22.20;99.90
9662;DHT22;24982;52.344;12.990;2023-07-02T16:49:33;22.20;99.90
9662;DHT22;24982;52.344;12.990;2023-07-02T16:52:35;22.30;99.90
9662;DHT22;24982;52.344;12.990;2023-07-02T16:55:37;22.20;99.90
9662;DHT22;24982;52.344;12.990;2023-07-02T16:58:42;22.20;99.90
9662;DHT22;24982;52.344;12.990;2023-07-02T17:01:46;22.10;99.90
9662;DHT22;24982;52.344;12.990;2023-07-02T17:04:48;22.10;99.90
9662;DHT22;24982;52.344;12.990;2023-07-02T17:07:50;21.90;99.90
9662;DHT22;24982;52.344;12.990;2023-07-02T17:10:52;21.90;99.90
9662;DHT22;24982;52.344;12.990;2023-07-02T17:13:54;22.00;99.90
9662;DHT22;24982;52.344;12.990;2023-07-02T17:17:00;22.00;99.90
9662;DHT22;24982;52.344;12.990;2023-07-02T17:20:03;21.90;99.90
9662;DHT22;24982;52.344;12.990;2023-07-02T17:23:06;21.80;99.90
9662;DHT22;24982;52.344;12.990;2023-07-02T17:26:08;21.80;99.90
9662;DHT22;24982;52.344;12.990;2023-07-02T17:29:11;21.80;99.90
9662;DHT22;24982;52.344;12.990;2023-07-02T17:32:14;21.70;99.90
9662;DHT22;24982;52.344;12.990;2023-07-02T17:35:16;21.70;99.90
9662;DHT22;24982;52.344;12.990;2023-07-02T17:38:18;21.70;99.90
9662;DHT22;24982;52.344;12.990;2023-07-02T17:41:21;21.70;99.90
9662;DHT22;24982;52.344;12.990;2023-07-02T17:44:24;21.80;99.90
9662;DHT22;24982;52.344;12.990;2023-07-02T17:47:28;21.80;99.90
9662;DHT22;24982;52.344;12.990;2023-07-02T17:50:30;21.70;99.90
9662;DHT22;24982;52.344;12.990;2023-07-02T17:53:32;21.60;99.90
9662;DHT22;24982;52.344;12.990;2023-07-02T17:56:34;21.60;99.90
9662;DHT22;24982;52.344;12.990;2023-07-02T17:59:37;21.50;99.90
9662;DHT22;24982;52.344;12.990;2023-07-02T18:02:40;21.50;99.90
9662;DHT22;24982;52.344;12.990;2023-07-02T18:05:42;21.50;99.90
9662;DHT22;24982;52.344;12.990;2023-07-02T18:08:45;21.50;99.90
9662;DHT22;24982;52.344;12.990;2023-07-02T18:11:46;21.50;99.90
9662;DHT22;24982;52.344;12.990;2023-07-02T18:14:49;21.40;99.90
9662;DHT22;24982;52.344;12.990;2023-07-02T18:17:52;21.40;99.90
9662;DHT22;24982;52.344;12.990;2023-07-02T18:20:54;21.60;99.90
9662;DHT22;24982;52.344;12.990;2023-07-02T18:23:56;21.30;99.90
9662;DHT22;24982;52.344;12.990;2023-07-02T18:27:01;21.30;99.90
9662;DHT22;24982;52.344;12.990;2023-07-02T18:30:04;21.10;99.90
9662;DHT22;24982;52.344;12.990;2023-07-02T18:33:08;21.20;99.90
9662;DHT22;24982;52.344;12.990;2023-07-02T18:36:12;21.20;99.90
9662;DHT22;24982;52.344;12.990;2023-07-02T18:39:14;21.10;99.90
9662;DHT22;24982;52.344;12.990;2023-07-02T18:42:16;21.10;99.90
9662;DHT22;24982;52.344;12.990;2023-07-02T18:45:22;21.10;99.90
9662;DHT22;24982;52.344;12.990;2023-07-02T18:48:26;21.10;99.90
9662;DHT22;24982;52.344;12.990;2023-07-02T18:51:28;21.10;99.90
9662;DHT22;24982;52.344;12.990;2023-07-02T18:54:30;21.00;99.90
9662;DHT22;24982;52.344;12.990;2023-07-02T18:57:32;21.00;99.90
9662;DHT22;24982;52.344;12.990;2023-07-02T19:00:34;21.00;99.90
9662;DHT22;24982;52.344;12.990;2023-07-02T19:03:37;21.00;99.90
9662;DHT22;24982;52.344;12.990;2023-07-02T19:06:39;21.00;99.90
9662;DHT22;24982;52.344;12.990;2023-07-02T19:09:42;20.90;99.90
9662;DHT22;24982;52.344;12.990;2023-07-02T19:12:45;20.90;99.90